Hawley, Texas
Current Conditions -  °F | °C
As of 4:58 PM on Tuesday 25 Nov 2014 (Local Time) from KDYS Reporting Station
Clear Clear  
Wind Chill: 58°   Ceiling: Unl
Heat Index: 58°   Visibility: 10mi
Dew Point: 19°   Wind: 15mph
Humidity: 22%   Direction: 240°WSW
Pressure: 30.15"   Gusts: NA
Location:  32.61°N, 99.81°W
Report Text: KDYS 252258Z AUTO 24013KT 10SM CLR 14/M07 A3015 RMK AO2 SLP210 T01431073 $
Loading
Personal Weather Stations






























Interactive Weather Map New forecast layout! Learn more

10-Day Weather Forecast

Advertisements
Track Severe Weather on mobile